createdAt,value
2018-10-17T00:01:01.590Z,23.13
2018-10-17T00:06:04.615Z,25.30
2018-10-17T00:11:07.648Z,28.13
2018-10-17T00:16:10.645Z,24.33
2018-10-17T00:21:13.685Z,24.17
2018-10-17T00:26:16.724Z,23.57
2018-10-17T00:31:19.801Z,24.70
2018-10-17T00:36:22.813Z,59.13
2018-10-17T00:41:25.924Z,55.90
2018-10-17T00:46:29.503Z,27.17
2018-10-17T00:51:32.663Z,23.33
2018-10-17T00:56:35.768Z,24.03
2018-10-17T01:01:39.205Z,23.47
2018-10-17T01:06:42.244Z,25.07
2018-10-17T01:11:45.240Z,25.47
2018-10-17T01:16:48.282Z,25.93
2018-10-17T01:21:51.322Z,29.73
2018-10-17T01:26:54.381Z,23.47
2018-10-17T01:31:57.407Z,25.23
2018-10-17T01:37:00.469Z,24.27
2018-10-17T01:42:03.591Z,24.30
2018-10-17T01:47:06.749Z,24.90
2018-10-17T01:52:09.740Z,23.70
2018-10-17T01:57:12.753Z,23.07
2018-10-17T02:02:15.787Z,24.40
2018-10-17T02:07:18.828Z,22.90
2018-10-17T02:12:21.851Z,24.80
2018-10-17T02:17:24.866Z,23.97
2018-10-17T02:22:27.908Z,24.10
2018-10-17T02:27:30.986Z,23.03
2018-10-17T02:32:34.014Z,24.17
2018-10-17T02:37:37.028Z,23.03
2018-10-17T02:42:40.061Z,23.70
2018-10-17T02:47:43.071Z,29.10
2018-10-17T02:52:46.151Z,42.23
2018-10-17T02:57:49.253Z,26.00
2018-10-17T03:02:53.052Z,23.00
2018-10-17T03:07:56.103Z,23.47
2018-10-17T03:12:59.229Z,30.30
2018-10-17T03:18:02.334Z,25.80
2018-10-17T03:23:05.834Z,26.17
2018-10-17T03:28:09.688Z,24.30
2018-10-17T03:33:12.677Z,24.20
2018-10-17T03:38:15.700Z,23.80
2018-10-17T03:43:18.773Z,23.27
2018-10-17T03:48:21.763Z,24.13
2018-10-17T03:58:34.322Z,25.50
2018-10-17T04:03:37.355Z,23.80
2018-10-17T04:08:40.508Z,24.90
2018-10-17T04:13:43.574Z,23.40
2018-10-17T04:18:46.592Z,22.93
2018-10-17T04:23:49.665Z,23.57
2018-10-17T04:28:52.718Z,24.03
2018-10-17T04:33:55.736Z,24.67
2018-10-17T04:38:58.755Z,23.67
2018-10-17T04:44:01.841Z,29.00
2018-10-17T04:49:05.419Z,26.50
2018-10-17T04:54:08.443Z,27.73
2018-10-17T04:59:11.587Z,27.13
2018-10-17T05:04:14.560Z,26.50
2018-10-17T05:09:17.604Z,24.63
2018-10-17T05:14:20.664Z,25.17
2018-10-17T05:19:23.784Z,26.20
2018-10-17T05:24:26.850Z,25.97
2018-10-17T05:29:29.908Z,27.93
2018-10-17T05:34:33.153Z,25.93
2018-10-17T05:39:36.187Z,26.00
2018-10-17T05:44:39.268Z,28.23
2018-10-17T05:49:42.559Z,28.30
2018-10-17T05:54:45.634Z,27.13
2018-10-17T05:59:48.809Z,27.43
2018-10-17T06:04:51.882Z,27.97
2018-10-17T06:09:54.906Z,30.33
2018-10-17T06:14:57.931Z,29.40
2018-10-17T06:20:01.024Z,31.03
2018-10-17T06:25:04.208Z,31.53
2018-10-17T06:30:08.379Z,33.77
2018-10-17T06:35:11.450Z,33.73
2018-10-17T06:40:14.514Z,31.63
2018-10-17T06:45:17.582Z,34.67
2018-10-17T06:50:20.829Z,30.03
2018-10-17T06:55:23.894Z,30.97
2018-10-17T07:00:27.157Z,31.63
2018-10-17T07:05:30.273Z,39.60
2018-10-17T07:10:33.325Z,37.57
2018-10-17T07:15:36.611Z,36.53
2018-10-17T07:20:39.552Z,38.77
2018-10-17T07:25:42.611Z,35.20
2018-10-17T07:30:45.657Z,36.30
2018-10-17T07:35:48.758Z,36.27
2018-10-17T07:40:52.045Z,33.77
2018-10-17T07:45:55.164Z,34.50
2018-10-17T07:50:58.353Z,34.80
2018-10-17T07:56:01.601Z,44.30
2018-10-17T08:01:04.697Z,34.93
2018-10-17T08:06:07.783Z,32.20
2018-10-17T08:11:10.933Z,31.13
2018-10-17T08:16:13.996Z,33.63
2018-10-17T08:21:17.019Z,32.63
2018-10-17T08:26:20.024Z,30.83
2018-10-17T08:31:23.076Z,33.03
2018-10-17T08:36:26.297Z,31.13
2018-10-17T08:41:29.295Z,32.67
2018-10-17T08:46:32.319Z,32.47
2018-10-17T08:51:35.364Z,34.07
2018-10-17T08:56:38.400Z,38.27
2018-10-17T09:01:41.558Z,47.83
2018-10-17T09:06:44.584Z,49.33
2018-10-17T09:11:47.844Z,36.47
2018-10-17T09:16:50.982Z,36.10
2018-10-17T09:21:54.221Z,42.50
2018-10-17T09:26:57.137Z,42.37
2018-10-17T09:32:00.247Z,37.93
2018-10-17T09:37:03.360Z,35.57
2018-10-17T09:42:06.575Z,33.17
2018-10-17T09:47:09.574Z,37.40
2018-10-17T09:52:12.691Z,43.60
2018-10-17T09:57:15.661Z,31.50
2018-10-17T10:02:18.764Z,30.50
2018-10-17T10:07:21.803Z,30.03
2018-10-17T10:12:24.851Z,29.97
2018-10-17T10:17:28.006Z,30.60
2018-10-17T10:22:30.967Z,30.50
2018-10-17T10:27:34.045Z,30.73
2018-10-17T10:32:37.072Z,40.50
2018-10-17T10:37:40.200Z,47.83
2018-10-17T10:42:43.227Z,46.40
2018-10-17T10:47:46.332Z,35.03
2018-10-17T10:52:49.404Z,33.43
2018-10-17T10:57:52.479Z,30.30
2018-10-17T11:02:55.729Z,46.87
2018-10-17T11:07:58.767Z,27.10
2018-10-17T11:13:01.778Z,27.53
2018-10-17T11:18:04.975Z,25.60
2018-10-17T11:23:08.161Z,43.23
2018-10-17T11:28:11.220Z,25.20
2018-10-17T11:33:14.314Z,25.80
2018-10-17T11:38:17.353Z,25.10
2018-10-17T11:43:20.390Z,33.80
2018-10-17T11:48:23.451Z,27.87
2018-10-17T11:53:26.601Z,31.27
2018-10-17T11:58:29.722Z,42.40
2018-10-17T12:03:32.956Z,28.83
2018-10-17T12:08:35.974Z,26.17
2018-10-17T12:13:39.056Z,25.30
2018-10-17T12:18:42.153Z,24.50
2018-10-17T12:23:45.208Z,31.83
2018-10-17T12:28:48.360Z,26.40
2018-10-17T12:33:51.448Z,27.40
2018-10-17T12:38:54.571Z,26.80
2018-10-17T12:43:57.619Z,24.80
2018-10-17T12:49:00.664Z,25.27
2018-10-17T12:54:03.828Z,25.20
2018-10-17T12:59:07.047Z,25.60
2018-10-17T13:04:10.038Z,25.80
2018-10-17T13:09:13.470Z,25.70
2018-10-17T13:14:16.528Z,25.10
2018-10-17T13:19:19.604Z,27.10
2018-10-17T13:24:22.670Z,25.67
2018-10-17T13:29:25.655Z,25.47
2018-10-17T13:34:28.703Z,41.50
2018-10-17T13:39:31.827Z,26.30
2018-10-17T13:44:34.868Z,30.60
2018-10-17T13:49:37.989Z,41.03
2018-10-17T13:54:41.078Z,33.53
2018-10-17T13:59:44.064Z,29.20
2018-10-17T14:04:47.080Z,32.10
2018-10-17T14:09:50.120Z,27.37
2018-10-17T14:14:53.200Z,27.30
2018-10-17T14:19:56.240Z,28.73
2018-10-17T14:24:59.248Z,27.77
2018-10-17T14:30:02.426Z,26.63
2018-10-17T14:35:08.128Z,27.73
2018-10-17T14:40:11.336Z,26.60
2018-10-17T14:45:14.544Z,26.80
2018-10-17T14:50:17.433Z,24.40
2018-10-17T14:55:20.552Z,28.80
2018-10-17T15:00:23.547Z,24.40
2018-10-17T15:05:26.551Z,32.00
2018-10-17T15:10:29.780Z,25.30
2018-10-17T15:15:36.564Z,35.27
2018-10-17T15:20:39.692Z,24.80
2018-10-17T15:25:42.844Z,32.70
2018-10-17T15:30:45.974Z,28.33
2018-10-17T15:35:49.042Z,28.20
2018-10-17T15:40:52.157Z,30.80
2018-10-17T15:45:55.200Z,29.50
2018-10-17T15:50:58.335Z,30.37
2018-10-17T15:56:01.377Z,29.93
2018-10-17T16:01:04.634Z,26.53
2018-10-17T16:06:07.738Z,25.03
2018-10-17T16:11:10.716Z,26.87
2018-10-17T16:16:13.759Z,27.83
2018-10-17T16:21:16.776Z,35.73
2018-10-17T16:26:19.848Z,48.77
2018-10-17T16:31:22.863Z,28.00
2018-10-17T16:36:25.877Z,29.47
2018-10-17T16:41:28.925Z,46.20
2018-10-17T16:46:31.896Z,28.53
2018-10-17T16:51:35.017Z,42.43
2018-10-17T16:56:38.119Z,28.40
2018-10-17T17:01:41.139Z,28.60
2018-10-17T17:06:44.180Z,29.10
2018-10-17T17:11:47.188Z,29.00
2018-10-17T17:16:50.224Z,33.37
2018-10-17T17:21:53.260Z,30.00
2018-10-17T17:26:56.416Z,29.93
2018-10-17T17:31:59.448Z,27.87
2018-10-17T17:37:02.595Z,29.67
2018-10-17T17:42:05.710Z,29.00
2018-10-17T17:47:08.704Z,31.30
2018-10-17T17:52:11.864Z,30.53
2018-10-17T17:57:15.040Z,31.30
2018-10-17T18:02:18.101Z,37.80
2018-10-17T18:07:21.169Z,30.97
2018-10-17T18:12:24.223Z,29.83
2018-10-17T18:17:27.269Z,29.83
2018-10-17T18:22:30.398Z,32.40
2018-10-17T18:27:33.578Z,33.53
2018-10-17T18:32:36.627Z,39.20
2018-10-17T18:37:39.690Z,32.10
2018-10-17T18:42:42.749Z,30.80
2018-10-17T18:47:45.827Z,32.80
2018-10-17T18:52:48.898Z,35.13
2018-10-17T18:57:52.035Z,35.40
2018-10-17T19:02:55.156Z,34.03
2018-10-17T19:07:58.195Z,33.00
2018-10-17T19:13:01.320Z,38.50
2018-10-17T19:18:04.455Z,36.10
2018-10-17T19:23:07.504Z,35.20
2018-10-17T19:28:10.540Z,34.53
2018-10-17T19:33:13.735Z,36.57
2018-10-17T19:38:16.643Z,41.07
2018-10-17T19:43:19.692Z,38.33
2018-10-17T19:48:22.721Z,36.77
2018-10-17T19:53:25.780Z,36.63
2018-10-17T19:58:28.831Z,39.27
2018-10-17T20:03:31.815Z,40.10
2018-10-17T20:08:34.819Z,39.37
2018-10-17T20:13:37.842Z,37.80
2018-10-17T20:18:40.896Z,40.73
2018-10-17T20:23:43.989Z,38.00
2018-10-17T20:28:47.015Z,37.80
2018-10-17T20:33:50.078Z,37.90
2018-10-17T20:38:53.132Z,36.90
2018-10-17T20:43:56.243Z,37.73
2018-10-17T20:48:59.284Z,37.13
2018-10-17T20:54:02.327Z,40.07
2018-10-17T20:59:05.532Z,46.60
2018-10-17T21:04:08.604Z,50.53
2018-10-17T21:09:13.376Z,44.80
2018-10-17T21:14:16.495Z,43.00
2018-10-17T21:19:19.524Z,42.60
2018-10-17T21:24:22.546Z,43.80
2018-10-17T21:29:25.604Z,44.47
2018-10-17T21:34:28.625Z,40.10
2018-10-17T21:39:31.647Z,39.67
2018-10-17T21:44:34.829Z,40.23
2018-10-17T21:49:37.868Z,40.30
2018-10-17T21:54:40.946Z,61.63
2018-10-17T21:59:43.988Z,40.40
2018-10-17T22:04:47.013Z,37.83
2018-10-17T22:09:50.193Z,38.23
2018-10-17T22:14:53.182Z,38.23
2018-10-17T22:19:56.554Z,37.73
2018-10-17T22:24:59.602Z,38.47
2018-10-17T22:30:02.709Z,45.33
2018-10-17T22:35:06.105Z,42.17
2018-10-17T22:40:09.168Z,41.77
2018-10-17T22:45:12.192Z,42.27
2018-10-17T22:50:15.303Z,41.23
2018-10-17T22:55:18.362Z,40.30
2018-10-17T23:00:21.412Z,38.20
2018-10-17T23:05:24.515Z,44.20
2018-10-17T23:10:27.597Z,38.87
2018-10-17T23:15:30.625Z,39.00
2018-10-17T23:20:33.860Z,37.97
2018-10-17T23:25:36.976Z,42.73
2018-10-17T23:30:39.992Z,48.40
2018-10-17T23:35:43.028Z,38.50
2018-10-17T23:40:46.100Z,38.33
2018-10-17T23:45:49.120Z,39.13
2018-10-17T23:50:52.117Z,38.40
2018-10-17T23:55:55.177Z,39.47
